Archival Weather

Republic

Farmingdale, New York (KFRG)

Report from: Wednesday, February 14, 2024 4:53 AM EST
Current time: Friday, June 14, 2024 8:12 AM EDT

Current weather – Weather history – Daily summaries
Weather forecast

Temperature0.6°C (33.1°F)
Wind chill-6.0°C (21.2°F)
Dew point-9.4°C (15.1°F)
Winds 18 kts (9.3 m/s, 20.7 mph) West-Northwest (290°)
Wind gusts 25 kts (12.9 m/s, 28.8 mph)
Peak wind 26 kts (13.4 m/s, 29.9 mph) Northwest (320°) at 09:25
Visibility10 mi. (16.1 km)
Clouds Few clouds 4,700 ft. (1,433 m)
Altimeter29.87 in.Hg (1012 mB)
Relative humidity47 %
Density altitude-1,646 ft. (-502 m)
Sea-level pressure101.2 kPa (1012 mB, 29.87 in.Hg)
Remarks Fully automated report
Automated weather observing station without precipitation discriminator
Freezing rain sensor not operating
Flight conditions Visual Meteorological Conditions
Raw dataKFRG 140953Z AUTO 29018G25KT 10SM FEW047 01/M09 A2987 RMK AO1 PK WND 32026/0925 SLP115 T00061094 FZRANO
An error has occurred. This application may no longer respond until reloaded. Reload 🗙